createdAt,value
2023-01-23T00:00:30.743Z,61.60
2023-01-23T00:02:57.139Z,62.20
2023-01-23T00:05:23.509Z,62.07
2023-01-23T00:07:49.946Z,62.43
2023-01-23T00:10:16.339Z,62.31
2023-01-23T00:12:42.701Z,62.43
2023-01-23T00:15:09.120Z,62.14
2023-01-23T00:17:35.503Z,61.95
2023-01-23T00:20:01.944Z,61.74
2023-01-23T00:22:28.324Z,61.90
2023-01-23T00:24:54.697Z,61.47
2023-01-23T00:27:21.137Z,61.84
2023-01-23T00:29:47.544Z,61.13
2023-01-23T00:32:13.940Z,61.64
2023-01-23T00:34:40.427Z,62.01
2023-01-23T00:37:06.793Z,61.74
2023-01-23T00:39:33.167Z,61.83
2023-01-23T00:41:59.586Z,61.51
2023-01-23T00:44:25.971Z,61.24
2023-01-23T00:46:52.377Z,61.21
2023-01-23T00:49:18.762Z,61.52
2023-01-23T00:51:45.155Z,61.78
2023-01-23T00:54:11.540Z,61.62
2023-01-23T00:56:37.924Z,61.09
2023-01-23T00:59:04.300Z,61.42
2023-01-23T01:01:30.673Z,61.37
2023-01-23T01:03:57.144Z,61.46
2023-01-23T01:06:23.504Z,61.93
2023-01-23T01:08:49.947Z,61.34
2023-01-23T01:11:16.312Z,62.41
2023-01-23T01:13:42.700Z,61.91
2023-01-23T01:16:09.186Z,61.81
2023-01-23T01:18:35.593Z,61.75
2023-01-23T01:21:01.983Z,62.70
2023-01-23T01:23:28.403Z,62.16
2023-01-23T01:25:54.795Z,61.71
2023-01-23T01:28:21.268Z,61.57
2023-01-23T01:30:47.658Z,61.03
2023-01-23T01:33:14.071Z,61.19
2023-01-23T01:35:40.535Z,61.04
2023-01-23T01:38:06.901Z,61.52
2023-01-23T01:40:33.271Z,60.86
2023-01-23T01:42:59.652Z,61.10
2023-01-23T01:45:26.088Z,60.62
2023-01-23T01:47:52.454Z,60.79
2023-01-23T01:50:19.114Z,60.58
2023-01-23T01:52:45.642Z,60.70
2023-01-23T01:55:12.021Z,61.00
2023-01-23T01:57:38.413Z,61.12
2023-01-23T02:00:04.820Z,60.50
2023-01-23T02:02:31.211Z,60.78
2023-01-23T02:04:57.582Z,60.10
2023-01-23T02:07:23.996Z,60.44
2023-01-23T02:09:50.433Z,60.35
2023-01-23T02:12:16.799Z,60.34
2023-01-23T02:14:43.193Z,60.64
2023-01-23T02:17:09.636Z,60.04
2023-01-23T02:19:36.010Z,60.54
2023-01-23T02:22:02.411Z,60.09
2023-01-23T02:24:28.791Z,60.49
2023-01-23T02:26:55.148Z,60.93
2023-01-23T02:29:21.593Z,60.91
2023-01-23T02:31:47.993Z,61.43
2023-01-23T02:34:14.404Z,61.33
2023-01-23T02:36:40.833Z,61.61
2023-01-23T02:39:07.206Z,62.28
2023-01-23T02:41:33.576Z,62.44
2023-01-23T02:43:59.974Z,62.29
2023-01-23T02:46:26.373Z,61.78
2023-01-23T02:48:52.762Z,62.45
2023-01-23T02:51:19.171Z,62.27
2023-01-23T02:53:45.592Z,61.95
2023-01-23T02:56:11.983Z,62.74
2023-01-23T02:58:38.346Z,62.18
2023-01-23T03:01:04.776Z,61.64
2023-01-23T03:03:31.201Z,61.61
2023-01-23T03:05:57.583Z,61.56
2023-01-23T03:08:24.005Z,61.71
2023-01-23T03:10:50.405Z,61.53
2023-01-23T03:13:16.776Z,62.26
2023-01-23T03:15:43.169Z,62.00
2023-01-23T03:18:09.538Z,62.76
2023-01-23T03:20:35.973Z,62.55
2023-01-23T03:23:02.364Z,63.19
2023-01-23T03:25:28.725Z,63.59
2023-01-23T03:27:55.235Z,62.99
2023-01-23T03:30:21.736Z,62.86
2023-01-23T03:32:48.386Z,62.79
2023-01-23T03:35:14.766Z,62.51
2023-01-23T03:37:41.153Z,62.37
2023-01-23T03:40:07.549Z,62.16
2023-01-23T03:42:33.928Z,62.02
2023-01-23T03:45:00.328Z,61.94
2023-01-23T03:47:26.699Z,62.58
2023-01-23T03:49:53.124Z,62.50
2023-01-23T03:52:19.506Z,62.68
2023-01-23T03:54:45.971Z,62.70
2023-01-23T03:57:12.339Z,62.56
2023-01-23T03:59:38.911Z,62.03
2023-01-23T04:02:05.357Z,62.14
2023-01-23T04:04:31.742Z,62.34
2023-01-23T04:06:58.161Z,62.05
2023-01-23T04:09:24.524Z,61.82
2023-01-23T04:11:50.969Z,62.31
2023-01-23T04:14:17.337Z,62.64
2023-01-23T04:16:43.729Z,62.21
2023-01-23T04:19:10.150Z,63.10
2023-01-23T04:21:36.549Z,62.80
2023-01-23T04:24:02.939Z,62.89
2023-01-23T04:26:29.294Z,63.73
2023-01-23T04:28:55.687Z,64.34
2023-01-23T04:31:22.198Z,63.95
2023-01-23T04:33:48.627Z,63.90
2023-01-23T04:36:15.086Z,63.57
2023-01-23T04:38:41.484Z,63.60
2023-01-23T04:41:07.863Z,63.53
2023-01-23T04:43:34.327Z,63.43
2023-01-23T04:46:00.743Z,63.08
2023-01-23T04:48:27.177Z,62.91
2023-01-23T04:50:53.668Z,62.88
2023-01-23T04:53:20.065Z,63.21
2023-01-23T04:55:46.454Z,62.93
2023-01-23T04:58:12.904Z,63.25
2023-01-23T05:00:39.262Z,62.75
2023-01-23T05:03:05.656Z,63.13
2023-01-23T05:05:32.058Z,62.96
2023-01-23T05:07:58.547Z,63.59
2023-01-23T05:10:25.023Z,63.30
2023-01-23T05:12:51.397Z,62.99
2023-01-23T05:15:17.772Z,63.38
2023-01-23T05:17:44.201Z,63.38
2023-01-23T05:20:10.597Z,63.53
2023-01-23T05:22:37.003Z,63.52
2023-01-23T05:25:03.379Z,63.94
2023-01-23T05:27:29.756Z,63.48
2023-01-23T05:29:56.129Z,64.10
2023-01-23T05:32:22.518Z,63.59
2023-01-23T05:34:48.907Z,64.06
2023-01-23T05:37:15.298Z,63.70
2023-01-23T05:39:41.691Z,63.72
2023-01-23T05:42:08.089Z,64.15
2023-01-23T05:44:34.527Z,64.33
2023-01-23T05:47:01.025Z,64.34
2023-01-23T05:49:27.421Z,63.89
2023-01-23T05:51:53.799Z,64.06
2023-01-23T05:54:20.187Z,64.31
2023-01-23T05:56:46.674Z,64.50
2023-01-23T05:59:13.056Z,64.05
2023-01-23T06:01:39.417Z,64.55
2023-01-23T06:04:05.816Z,64.87
2023-01-23T06:06:32.203Z,64.63
2023-01-23T06:08:58.637Z,64.82
2023-01-23T06:11:25.024Z,65.18
2023-01-23T06:13:51.420Z,64.89
2023-01-23T06:16:17.992Z,65.32
2023-01-23T06:18:44.387Z,65.26
2023-01-23T06:21:10.886Z,65.59
2023-01-23T06:23:37.264Z,65.81
2023-01-23T06:26:03.648Z,65.90
2023-01-23T06:28:30.043Z,66.08
2023-01-23T06:30:56.467Z,65.85
2023-01-23T06:33:22.957Z,65.16
2023-01-23T06:35:49.315Z,65.32
2023-01-23T06:38:15.707Z,65.58
2023-01-23T06:40:42.083Z,64.99
2023-01-23T06:43:08.501Z,65.19
2023-01-23T06:45:34.927Z,65.52
2023-01-23T06:48:01.299Z,65.20
2023-01-23T06:50:27.679Z,65.79
2023-01-23T06:52:54.062Z,65.76
2023-01-23T06:55:20.437Z,65.92
2023-01-23T06:57:46.813Z,76.10
2023-01-23T07:00:13.195Z,63.99
2023-01-23T07:02:39.619Z,64.41
2023-01-23T07:05:06.029Z,64.04
2023-01-23T07:07:32.405Z,63.86
2023-01-23T07:09:58.885Z,64.27
2023-01-23T07:12:25.324Z,64.58
2023-01-23T07:14:51.680Z,64.43
2023-01-23T07:17:18.084Z,64.61
2023-01-23T07:19:44.499Z,64.70
2023-01-23T07:22:10.941Z,64.46
2023-01-23T07:24:37.339Z,64.63
2023-01-23T07:27:03.731Z,64.40
2023-01-23T07:29:30.121Z,64.24
2023-01-23T07:31:56.556Z,64.18
2023-01-23T07:34:23.076Z,64.49
2023-01-23T07:36:49.578Z,63.96
2023-01-23T07:39:15.963Z,63.99
2023-01-23T07:41:43.855Z,64.01
2023-01-23T07:44:11.179Z,64.24
2023-01-23T07:46:37.583Z,64.25
2023-01-23T07:49:03.992Z,64.14
2023-01-23T07:51:30.400Z,64.16
2023-01-23T07:53:57.014Z,64.09
2023-01-23T07:56:23.448Z,64.25
2023-01-23T07:58:49.892Z,64.17
2023-01-23T08:01:16.316Z,63.94
2023-01-23T08:03:42.816Z,63.92
2023-01-23T08:06:09.199Z,63.80
2023-01-23T08:08:35.604Z,63.51
2023-01-23T08:11:01.995Z,63.74
2023-01-23T08:13:28.373Z,64.18
2023-01-23T08:15:54.836Z,64.01
2023-01-23T08:18:21.245Z,64.40
2023-01-23T08:20:47.622Z,64.10
2023-01-23T08:23:14.002Z,63.23
2023-01-23T08:25:40.378Z,63.06
2023-01-23T08:28:06.771Z,62.46
2023-01-23T08:30:33.176Z,64.99
2023-01-23T08:32:59.571Z,61.40
2023-01-23T08:35:25.964Z,61.28
2023-01-23T08:37:52.353Z,61.38
2023-01-23T08:40:21.063Z,61.31
2023-01-23T08:42:47.638Z,61.38
2023-01-23T08:45:14.029Z,61.44
2023-01-23T08:47:40.420Z,61.85
2023-01-23T08:50:06.824Z,61.41
2023-01-23T08:52:33.397Z,61.48
2023-01-23T08:54:59.805Z,60.72
2023-01-23T08:57:26.216Z,61.27
2023-01-23T08:59:52.610Z,60.98
2023-01-23T09:02:19.099Z,60.00
2023-01-23T09:04:45.507Z,59.71
2023-01-23T09:07:11.870Z,59.19
2023-01-23T09:09:38.277Z,58.19
2023-01-23T09:12:04.668Z,58.13
2023-01-23T09:14:31.057Z,58.66
2023-01-23T09:16:57.534Z,58.98
2023-01-23T09:19:23.938Z,58.80
2023-01-23T09:21:50.325Z,57.79
2023-01-23T09:24:16.720Z,57.31
2023-01-23T09:26:43.119Z,56.78
2023-01-23T09:29:09.520Z,57.55
2023-01-23T09:31:35.933Z,57.47
2023-01-23T09:34:02.344Z,58.11
2023-01-23T09:36:42.141Z,58.18
2023-01-23T09:39:09.472Z,57.31
2023-01-23T09:41:35.890Z,56.60
2023-01-23T09:44:02.266Z,56.56
2023-01-23T09:46:28.638Z,56.91
2023-01-23T09:48:55.102Z,57.05
2023-01-23T09:51:21.609Z,56.89
2023-01-23T09:53:48.032Z,56.67
2023-01-23T09:56:14.397Z,56.18
2023-01-23T09:58:40.789Z,55.36
2023-01-23T10:01:07.192Z,56.11
2023-01-23T10:03:33.589Z,55.34
2023-01-23T10:06:00.110Z,55.07
2023-01-23T10:08:26.498Z,54.73
2023-01-23T10:10:52.885Z,54.91
2023-01-23T10:13:19.289Z,55.34
2023-01-23T10:15:45.771Z,55.13
2023-01-23T10:18:12.196Z,55.13
2023-01-23T10:20:38.619Z,54.54
2023-01-23T10:23:05.039Z,54.90
2023-01-23T10:25:31.418Z,55.46
2023-01-23T10:27:57.820Z,55.72
2023-01-23T10:30:24.402Z,55.88
2023-01-23T10:32:50.843Z,56.20
2023-01-23T10:35:17.353Z,56.37
2023-01-23T10:37:43.752Z,55.76
2023-01-23T10:40:10.135Z,55.33
2023-01-23T10:42:36.514Z,55.07
2023-01-23T10:45:02.876Z,54.61
2023-01-23T10:47:32.804Z,53.95
2023-01-23T10:49:59.712Z,53.61
2023-01-23T10:52:26.118Z,53.71
2023-01-23T10:54:52.520Z,53.99
2023-01-23T10:57:18.905Z,54.37
2023-01-23T10:59:45.257Z,54.52
2023-01-23T11:02:11.868Z,53.85
2023-01-23T11:04:38.366Z,53.98
2023-01-23T11:07:04.801Z,53.84
2023-01-23T11:09:31.172Z,53.76
2023-01-23T11:11:57.559Z,53.14
2023-01-23T11:14:24.048Z,52.29
2023-01-23T11:16:50.444Z,50.42
2023-01-23T11:19:16.832Z,50.37
2023-01-23T11:21:43.194Z,49.88
2023-01-23T11:24:09.600Z,49.76
2023-01-23T11:26:35.995Z,50.79
2023-01-23T11:29:02.378Z,51.60
2023-01-23T11:31:28.837Z,52.67
2023-01-23T11:33:55.263Z,53.09
2023-01-23T11:36:21.639Z,54.33
2023-01-23T11:38:52.758Z,53.96
2023-01-23T11:41:19.527Z,54.45
2023-01-23T11:43:45.933Z,54.84
2023-01-23T11:46:12.379Z,54.04
2023-01-23T11:48:38.858Z,53.81
2023-01-23T11:51:05.294Z,54.04
2023-01-23T11:53:41.794Z,54.53
2023-01-23T11:56:08.982Z,55.06
2023-01-23T11:58:49.072Z,55.82
2023-01-23T12:01:16.077Z,55.83
2023-01-23T12:03:42.504Z,55.00
2023-01-23T12:06:19.563Z,54.60
2023-01-23T12:08:46.541Z,55.37
2023-01-23T12:11:12.908Z,55.10
2023-01-23T12:13:39.351Z,54.72
2023-01-23T12:16:05.947Z,54.66
2023-01-23T12:18:32.445Z,53.99
2023-01-23T12:20:58.851Z,53.93
2023-01-23T12:23:25.352Z,54.21
2023-01-23T12:25:51.757Z,54.66
2023-01-23T12:28:18.195Z,53.79
2023-01-23T12:30:44.680Z,53.97
2023-01-23T12:33:11.051Z,53.79
2023-01-23T12:35:37.452Z,52.98
2023-01-23T12:38:03.887Z,53.05
2023-01-23T12:40:30.275Z,52.21
2023-01-23T12:42:56.652Z,50.78
2023-01-23T12:45:23.577Z,49.38
2023-01-23T12:47:50.297Z,49.10
2023-01-23T12:50:16.715Z,49.22
2023-01-23T12:52:43.426Z,48.42
2023-01-23T12:55:09.805Z,48.48
2023-01-23T12:57:46.116Z,48.21
2023-01-23T13:00:22.865Z,47.19
2023-01-23T13:02:49.528Z,46.72
2023-01-23T13:05:15.908Z,47.58
2023-01-23T13:07:42.305Z,47.11
2023-01-23T13:10:08.691Z,48.10
2023-01-23T13:12:35.104Z,48.67
2023-01-23T13:15:13.783Z,49.24
2023-01-23T13:17:40.988Z,48.57
2023-01-23T13:20:07.457Z,48.18
2023-01-23T13:22:33.843Z,49.65
2023-01-23T13:25:00.277Z,49.53
2023-01-23T13:27:26.865Z,50.41
2023-01-23T13:29:53.260Z,51.31
2023-01-23T13:32:19.645Z,52.26
2023-01-23T13:34:46.113Z,53.03
2023-01-23T13:37:12.493Z,54.51
2023-01-23T13:39:40.173Z,54.23
2023-01-23T13:42:08.088Z,54.36
2023-01-23T13:44:41.521Z,54.43
2023-01-23T14:24:32.038Z,55.47
2023-01-23T14:27:02.566Z,55.65
2023-01-23T14:29:31.068Z,56.60
2023-01-23T14:31:57.509Z,57.32
2023-01-23T14:34:23.923Z,57.82
2023-01-23T14:36:50.294Z,57.51
2023-01-23T14:39:16.724Z,58.07
2023-01-23T14:41:44.883Z,58.68
2023-01-23T14:44:11.339Z,58.37
2023-01-23T14:46:37.731Z,58.09
2023-01-23T14:49:04.128Z,58.58
2023-01-23T14:51:30.506Z,57.89
2023-01-23T14:53:56.921Z,58.08
2023-01-23T14:56:23.287Z,57.77
2023-01-23T14:58:49.665Z,58.25
2023-01-23T15:01:16.033Z,58.23
2023-01-23T15:03:42.549Z,58.65
2023-01-23T15:06:08.950Z,58.74
2023-01-23T15:08:35.310Z,58.88
2023-01-23T15:11:01.759Z,58.52
2023-01-23T15:13:28.180Z,58.39
2023-01-23T15:15:54.593Z,58.88
2023-01-23T15:18:20.974Z,58.93
2023-01-23T15:20:47.378Z,59.38
2023-01-23T15:23:13.777Z,59.34
2023-01-23T15:25:40.212Z,59.45
2023-01-23T15:28:06.616Z,59.55
2023-01-23T15:30:33.181Z,60.30
2023-01-23T15:32:59.644Z,60.94
2023-01-23T15:35:26.056Z,60.73
2023-01-23T15:37:52.423Z,61.39
2023-01-23T15:40:19.326Z,61.72
2023-01-23T15:42:45.721Z,61.54
2023-01-23T15:45:12.103Z,61.54
2023-01-23T15:47:38.491Z,61.21
2023-01-23T15:50:04.905Z,61.58
2023-01-23T15:52:31.288Z,61.75
2023-01-23T15:54:57.681Z,61.46
2023-01-23T15:57:24.050Z,61.28
2023-01-23T15:59:50.437Z,61.33
2023-01-23T16:02:29.543Z,60.94
2023-01-23T16:04:57.304Z,61.46
2023-01-23T16:07:23.685Z,61.34
2023-01-23T16:09:50.087Z,61.79
2023-01-23T16:12:16.463Z,61.40
2023-01-23T16:14:42.871Z,61.84
2023-01-23T16:17:16.869Z,62.01
2023-01-23T16:19:43.698Z,62.13
2023-01-23T16:22:10.089Z,62.28
2023-01-23T16:24:36.580Z,61.79
2023-01-23T16:27:03.010Z,62.24
2023-01-23T16:29:29.425Z,61.81
2023-01-23T16:31:56.101Z,61.84
2023-01-23T16:34:22.651Z,62.13
2023-01-23T16:36:49.020Z,61.57
2023-01-23T16:39:15.391Z,61.88
2023-01-23T16:41:41.785Z,62.41
2023-01-23T16:44:08.170Z,62.64
2023-01-23T16:46:34.540Z,62.97
2023-01-23T16:49:02.462Z,63.00
2023-01-23T16:51:28.850Z,62.99
2023-01-23T16:53:55.229Z,62.91
2023-01-23T16:56:21.677Z,62.80
2023-01-23T16:58:48.077Z,62.99
2023-01-23T17:01:14.531Z,62.69
2023-01-23T17:03:41.035Z,62.77
2023-01-23T17:06:07.401Z,63.05
2023-01-23T17:08:33.836Z,62.84
2023-01-23T17:11:00.202Z,62.83
2023-01-23T17:13:26.615Z,62.81
2023-01-23T17:15:53.051Z,63.03
2023-01-23T17:18:19.433Z,63.11
2023-01-23T17:20:45.823Z,62.87
2023-01-23T17:23:12.227Z,63.13
2023-01-23T17:25:47.861Z,63.38
2023-01-23T17:28:20.894Z,62.76
2023-01-23T17:30:47.366Z,63.02
2023-01-23T17:33:13.749Z,62.53
2023-01-23T17:35:40.142Z,63.00
2023-01-23T17:38:06.550Z,63.00
2023-01-23T17:40:33.236Z,62.86
2023-01-23T17:42:59.836Z,62.80
2023-01-23T17:45:26.208Z,62.84
2023-01-23T17:47:52.668Z,63.07
2023-01-23T17:50:19.323Z,63.35
2023-01-23T17:52:45.911Z,63.30
2023-01-23T17:55:12.308Z,62.94
2023-01-23T17:57:38.701Z,62.96
2023-01-23T18:00:05.197Z,63.40
2023-01-23T18:02:31.649Z,63.17
2023-01-23T18:04:58.053Z,68.06
2023-01-23T18:07:24.413Z,61.06
2023-01-23T18:09:50.807Z,61.01
2023-01-23T18:12:17.203Z,61.74
2023-01-23T18:14:43.603Z,61.76
2023-01-23T18:17:10.152Z,62.53
2023-01-23T18:19:36.612Z,62.56
2023-01-23T18:22:02.969Z,62.28
2023-01-23T18:24:29.541Z,62.70
2023-01-23T18:26:55.983Z,62.64
2023-01-23T18:29:22.346Z,62.62
2023-01-23T18:31:48.878Z,63.10
2023-01-23T18:34:18.101Z,62.71
2023-01-23T18:36:44.516Z,62.32
2023-01-23T18:39:10.950Z,62.18
2023-01-23T18:41:37.337Z,62.17
2023-01-23T18:44:03.785Z,62.36
2023-01-23T18:46:30.177Z,62.96
2023-01-23T18:48:56.584Z,63.19
2023-01-23T18:51:22.962Z,63.41
2023-01-23T18:53:49.379Z,62.90
2023-01-23T18:56:15.782Z,62.88
2023-01-23T18:58:42.249Z,63.10
2023-01-23T19:01:08.709Z,62.86
2023-01-23T19:03:35.140Z,62.86
2023-01-23T19:06:04.524Z,62.86
2023-01-23T19:08:30.920Z,62.90
2023-01-23T19:10:57.375Z,62.59
2023-01-23T19:13:23.775Z,63.09
2023-01-23T19:15:50.230Z,63.02
2023-01-23T19:18:16.659Z,62.48
2023-01-23T19:20:43.081Z,62.30
2023-01-23T19:23:09.502Z,62.60
2023-01-23T19:25:35.893Z,62.78
2023-01-23T19:28:02.372Z,62.71
2023-01-23T19:30:28.752Z,62.63
2023-01-23T19:32:55.149Z,62.92
2023-01-23T19:35:21.557Z,62.50
2023-01-23T19:37:47.938Z,62.54
2023-01-23T19:40:14.313Z,62.67
2023-01-23T19:42:52.495Z,62.46
2023-01-23T19:45:24.944Z,62.50
2023-01-23T19:47:51.316Z,62.32
2023-01-23T19:50:17.724Z,61.84
2023-01-23T19:52:44.104Z,61.67
2023-01-23T19:55:10.555Z,61.67
2023-01-23T19:57:36.946Z,62.31
2023-01-23T20:00:03.377Z,61.80
2023-01-23T20:02:29.749Z,62.04
2023-01-23T20:04:56.199Z,61.81
2023-01-23T20:07:22.587Z,61.97
2023-01-23T20:09:49.019Z,61.35
2023-01-23T20:12:15.424Z,61.09
2023-01-23T20:14:41.806Z,61.13
2023-01-23T20:17:08.181Z,60.85
2023-01-23T20:19:34.546Z,61.08
2023-01-23T20:22:01.031Z,60.56
2023-01-23T20:24:27.477Z,61.01
2023-01-23T20:26:53.907Z,61.45
2023-01-23T20:29:20.306Z,61.21
2023-01-23T20:31:46.749Z,61.18
2023-01-23T20:34:13.135Z,60.47
2023-01-23T20:36:39.528Z,60.44
2023-01-23T20:39:05.927Z,60.36
2023-01-23T20:41:32.304Z,60.08
2023-01-23T20:43:58.736Z,59.93
2023-01-23T20:46:25.148Z,60.05
2023-01-23T20:48:51.561Z,59.81
2023-01-23T20:51:18.027Z,60.12
2023-01-23T20:53:44.423Z,59.91
2023-01-23T20:56:10.826Z,60.38
2023-01-23T20:58:37.290Z,60.87
2023-01-23T21:01:03.720Z,60.40
2023-01-23T21:03:30.147Z,60.35
2023-01-23T21:05:56.578Z,60.35
2023-01-23T21:08:23.087Z,60.51
2023-01-23T21:10:49.462Z,60.35
2023-01-23T21:13:15.865Z,60.75
2023-01-23T21:15:42.281Z,60.97
2023-01-23T21:18:08.659Z,60.46
2023-01-23T21:20:35.083Z,60.81
2023-01-23T21:23:01.524Z,60.46
2023-01-23T21:25:27.918Z,60.58
2023-01-23T21:27:54.317Z,59.98
2023-01-23T21:30:20.716Z,60.08
2023-01-23T21:32:48.016Z,59.73
2023-01-23T21:35:15.551Z,60.00
2023-01-23T21:37:41.968Z,59.68
2023-01-23T21:40:08.407Z,60.33
2023-01-23T21:42:34.786Z,59.98
2023-01-23T21:45:01.163Z,59.67
2023-01-23T21:47:27.546Z,59.60
2023-01-23T21:49:53.945Z,59.90
2023-01-23T21:52:20.311Z,60.26
2023-01-23T21:54:46.718Z,60.48
2023-01-23T21:57:13.111Z,60.05
2023-01-23T21:59:39.480Z,59.92
2023-01-23T22:02:05.867Z,60.77
2023-01-23T22:04:32.306Z,60.39
2023-01-23T22:06:58.780Z,60.84
2023-01-23T22:09:25.194Z,61.07
2023-01-23T22:11:51.625Z,60.68
2023-01-23T22:14:18.019Z,60.57
2023-01-23T22:16:49.490Z,60.86
2023-01-23T22:19:16.526Z,60.80
2023-01-23T22:21:42.980Z,60.74
2023-01-23T22:24:09.443Z,60.29
2023-01-23T22:26:35.849Z,60.48
2023-01-23T22:29:02.245Z,59.99
2023-01-23T22:31:28.673Z,60.42
2023-01-23T22:33:55.125Z,60.55
2023-01-23T22:36:21.493Z,60.29
2023-01-23T22:38:47.879Z,60.07
2023-01-23T22:41:14.266Z,60.42
2023-01-23T22:43:40.648Z,60.65
2023-01-23T22:46:07.178Z,60.49
2023-01-23T22:48:33.663Z,60.20
2023-01-23T22:51:00.036Z,60.15
2023-01-23T22:53:26.426Z,60.15
2023-01-23T22:55:52.868Z,60.16
2023-01-23T22:58:19.238Z,60.19
2023-01-23T23:00:45.637Z,60.79
2023-01-23T23:03:12.038Z,61.13
2023-01-23T23:05:38.437Z,60.43
2023-01-23T23:08:04.833Z,59.55
2023-01-23T23:10:31.808Z,60.17
2023-01-23T23:12:58.191Z,60.34
2023-01-23T23:15:24.580Z,59.85
2023-01-23T23:17:51.055Z,60.17
2023-01-23T23:20:17.487Z,59.97
2023-01-23T23:22:43.859Z,60.60
2023-01-23T23:25:10.222Z,60.60
2023-01-23T23:27:36.597Z,60.16
2023-01-23T23:30:03.028Z,59.60
2023-01-23T23:32:29.485Z,59.28
2023-01-23T23:34:55.886Z,59.48
2023-01-23T23:37:22.341Z,59.47
2023-01-23T23:39:48.699Z,60.16
2023-01-23T23:42:15.054Z,60.43
2023-01-23T23:44:41.419Z,61.02
2023-01-23T23:47:08.004Z,61.31
2023-01-23T23:49:34.422Z,61.25
2023-01-23T23:52:00.817Z,61.64
2023-01-23T23:54:27.196Z,60.25
2023-01-23T23:56:53.557Z,59.75
2023-01-23T23:59:19.932Z,59.80
